Aérodrome :
LOGIN :

S'inscrire | Disclaimer

   EN    FR    IT 

 










Légende :    VFR   VFR Marginal   IFR   IFR Intensif   IFR Très Intensif
Visi : 
Plafond : 
>= 8 km
>= 3000ft
5 à 8 km
1000 à 3000 ft
1500m à 5 km
500 à 1000 ft
800 à 1500m
200 à 500 ft
< 800m
< 200 ft
Symboles :   Orages  Brouillard  Fortes neiges  Fortes précipitations  Vent > 20 kt
SIGMETs :   Divers  Orages  Givrage  Turbulence  Onde Orograph.  Cendres Volcan.







- Altitude de l'aérodrome : 39 ft
- Code IATA : TRS


LIPQ - Friuli Venezia Giulia Apt. Trieste

DERNIER METAR :
  • 221150Z 06005KT 020V120 9999 SCT030 BKN050 20/16 Q1014

METARs EXPIRÉS :
  • 221120Z 08006KT 040V110 9999 SCT030 BKN060 19/16 Q1014
  • 221050Z 04006KT 360V080 9999 SCT030 BKN060 19/17 Q1014
  • 221020Z 04006KT 350V060 9999 SCT020 BKN050 18/16 Q1014
  • 220950Z 04005KT 010V070 9999 -RA SCT020 BKN050 18/16 Q1014
  • 220920Z 05004KT 010V080 7000 -RA SCT020 BKN040 17/16 Q1014

TAF TAF LIPQ
Valide du 22 à 12h jusqu'au 23 à 12h UTC


221100Z 2212/2312 VRB06KT 9999 SCT040
TEMPO 2212/2218 SHRA
Pas de NOTAMs connus pour ce terrain.
1 SIGMET publié pour la FIR Milano (LIMM) :
 
Orages noyés dans la masse
LIMM SIGMET 3 VALID 221020/221220 LIIB
LIMM MILANO FIR EMBD TS OBS S OF LINE N4337 E01058 - N4451 E01317 TOP FL350 MOV N NC=



MET'MAP, la Météo Aéronautique d'un coup d'oeil ! - Copyright ORBIFLY Décembre 2007 - Disclaimer

ORBIFLY MET'MAP TEAM :

Programmation & Développement : Alexandra Zaïnal
Conception & Développement : Baudouin d'Aumeries
Co-Programmation & Développement : Marc-Olivier Méhu
Soutien technique & logistique : Manuel Goepfert

Contact : metmap@orbifly.com




SOURCES & CREDITS :

   NOAA